EST,Max TemperatureF,Mean TemperatureF,Min TemperatureF,Max Dew PointF,MeanDew PointF,Min DewpointF,Max Humidity, Mean Humidity, Min Humidity, Max Sea Level PressureIn, Mean Sea Level PressureIn, Min Sea Level PressureIn, Max VisibilityMiles, Mean VisibilityMiles, Min VisibilityMiles, Max Wind SpeedMPH, Mean Wind SpeedMPH, Max Gust SpeedMPH,PrecipitationIn, CloudCover, Events, WindDirDegrees
2012-1-1,57,45,32,46,36,19,82,66,49,30.10,29.95,29.81,10,9,2,25,13,36,0.12,6,Rain,229
2012-1-2,33,24,15,20,14,8,88,64,39,30.14,29.99,29.90,10,4,0,24,13,38,0.09,7,Fog-Snow,295
2012-1-3,17,15,13,11,8,5,80,68,56,30.38,30.15,30.00,10,3,0,18,13,33,0.01,8,Snow,304
2012-1-4,37,24,10,22,11,0,76,53,29,30.38,30.20,29.99,10,10,4,17,7,23,T,3,Snow,231
2012-1-5,43,37,30,24,20,16,72,54,36,30.15,30.07,29.98,10,10,10,15,8,22,0.00,2,,267
2012-1-6,57,46,35,27,23,21,56,42,28,30.07,30.00,29.93,10,10,10,17,10,24,0.00,0,,230
2012-1-7,55,45,34,46,37,24,86,64,41,30.14,29.96,29.89,10,10,6,17,6,24,0.02,6,Rain,275
2012-1-8,47,36,25,28,23,21,85,63,41,30.32,30.26,30.16,10,10,10,8,1,12,0.00,1,,32
2012-1-9,41,36,31,39,34,21,100,75,50,30.23,30.11,30.03,10,7,1,13,5,18,0.17,7,Rain,159
2012-1-10,46,37,28,33,28,24,100,73,45,30.14,30.08,29.99,10,8,0,10,5,15,0.00,1,Fog,228
2012-1-11,45,41,37,40,36,25,93,73,53,29.96,29.68,29.48,10,9,2,23,13,35,0.39,7,Rain,131
2012-1-12,47,37,26,44,36,19,93,82,71,29.61,29.51,29.41,10,6,1,29,11,40,0.19,8,Rain-Snow,238
2012-1-13,26,22,17,19,13,9,84,76,67,30.12,29.79,29.57,10,4,1,26,13,36,T,8,Snow,268
2012-1-14,29,25,20,21,16,11,88,67,46,30.19,30.08,29.98,10,6,2,20,9,25,0.01,7,Snow,267
2012-1-15,29,25,20,22,17,12,92,71,50,30.52,30.36,30.05,10,8,1,13,6,16,T,5,Snow,302
2012-1-16,51,38,25,28,20,15,68,47,26,30.46,30.32,30.11,10,10,10,24,11,33,0.02,4,Rain,158
2012-1-17,57,48,38,50,41,24,93,63,33,30.09,29.89,29.76,10,8,1,29,17,41,0.49,7,Rain,250
2012-1-18,38,30,21,28,18,12,75,65,55,30.19,30.11,29.98,10,9,6,22,9,30,T,8,Snow,320
2012-1-19,39,28,17,15,12,8,77,52,27,30.16,30.06,29.96,10,10,10,20,8,25,0.00,4,,195
2012-1-20,45,38,30,36,28,14,85,63,40,30.16,30.04,29.92,10,10,7,21,8,30,0.06,7,Rain,155
2012-1-21,45,38,30,43,35,28,100,93,85,30.18,29.94,29.79,10,3,0,20,7,28,1.08,8,Fog-Rain,35
2012-1-22,44,38,31,36,33,30,100,85,70,30.26,30.17,30.11,10,8,2,20,12,28,0.00,6,,135
2012-1-23,62,50,38,46,40,35,93,72,51,30.11,29.95,29.78,10,10,6,24,14,39,0.08,5,Rain,175
2012-1-24,51,42,33,38,32,27,85,63,41,30.31,30.14,29.99,10,10,10,16,7,22,0.00,2,,286
2012-1-25,56,42,27,32,29,25,92,64,35,30.34,30.24,30.11,10,10,2,14,4,17,T,2,,142
2012-1-26,60,54,48,53,43,30,86,66,46,30.08,29.86,29.53,10,10,5,21,9,30,0.08,6,Rain,153
2012-1-27,61,47,33,51,40,29,93,81,69,30.08,29.74,29.45,10,8,2,38,11,63,0.54,8,Rain,274
2012-1-28,43,36,28,35,26,13,85,64,43,30.28,30.09,29.97,10,10,7,22,10,30,T,4,Rain,259
2012-1-29,42,32,22,19,13,10,68,48,28,30.34,30.26,30.17,10,10,10,29,12,43,0.00,2,,256
2012-1-30,51,36,21,21,18,14,71,50,28,30.40,30.32,30.28,10,10,10,14,7,18,0.00,1,,233
2012-1-31,62,51,40,25,20,15,43,33,23,30.32,30.23,30.14,10,10,10,21,9,26,0.00,2,,227